»·PEaware :: N47332 KOXR-KSBA

N47332 :: KOXR-KSBA

FLIGHT INFORMATION

Flight Status: Arrived
Operator: Privately registered:
United States
More flights under this callsign
Pilot: Sergei F. (8485)
Aircraft: CESSNA 172 SKYHAWK
(C172)
More flights by this aircraft type
Origin: KOXR Oxnard
United States
Destination: KSBA Santa Barbara Mun
United States
More flights between these airports :: More routes between these airports
Route: KWANG
File this flight plan on PilotEdge
Remarks:
Altitude:
(Current/Filed)
4,000ft
Speed:
(Current/Filed)
100kts
Departed: 07-Jan-18 05:13 PM
Arrived: 07-Jan-18 05:46 PM
Distance/Time
Traveled:
35nm/0:33
Distance/Time
To Go:
Arrived

Flight Plot

Page will automatically refresh every two minutes.


Map Options




Map Legend


Flown Route
Filed Route
Departure Airport
Arrival Airport
Navaid (VOR, NDB)
Fix

Horizontal Profiles

Position Reports

Time Latitude Longitude Heading Altitude Ground
Speed
07-Jan-18 17:02 34.198815 -119.198488 0 42ft 0kts
07-Jan-18 17:03 34.198815 -119.198488 359 42ft 0kts
07-Jan-18 17:04 34.198815 -119.198488 359 42ft 0kts
07-Jan-18 17:05 34.198815 -119.198488 359 42ft 0kts
07-Jan-18 17:06 34.198815 -119.198488 359 42ft 0kts
07-Jan-18 17:07 34.198815 -119.198488 359 42ft 0kts
07-Jan-18 17:08 34.198815 -119.198488 359 42ft 0kts
07-Jan-18 17:09 34.198815 -119.198488 359 42ft 0kts
07-Jan-18 17:10 34.198815 -119.198488 359 42ft 0kts
07-Jan-18 17:11 34.198815 -119.198488 359 42ft 0kts
07-Jan-18 17:12 34.198815 -119.198488 359 42ft 0kts
07-Jan-18 17:13 34.199108 -119.198475 6 42ft 5kts
07-Jan-18 17:14 34.199999 -119.197528 2 42ft 0kts
07-Jan-18 17:15 34.199998 -119.197528 3 42ft 0kts
07-Jan-18 17:16 34.199998 -119.197528 3 42ft 0kts
07-Jan-18 17:17 34.199998 -119.197528 3 42ft 0kts
07-Jan-18 17:18 34.200737 -119.198247 270 42ft 18kts
07-Jan-18 17:19 34.199797 -119.220206 267 721ft 74kts
07-Jan-18 17:20 34.198229 -119.246419 266 1576ft 82kts
07-Jan-18 17:21 34.197134 -119.273821 285 2420ft 84kts
07-Jan-18 17:22 34.209623 -119.297122 304 3213ft 86kts
07-Jan-18 17:23 34.223097 -119.321641 304 3918ft 94kts
07-Jan-18 17:24 34.241674 -119.350521 307 3995ft 117kts
07-Jan-18 17:25 34.256889 -119.385816 280 3939ft 122kts
07-Jan-18 17:26 34.263835 -119.423078 280 3872ft 105kts
07-Jan-18 17:27 34.269862 -119.455174 281 3985ft 91kts
07-Jan-18 17:28 34.275502 -119.485583 283 4046ft 94kts
07-Jan-18 17:29 34.282414 -119.517586 283 4007ft 101kts
07-Jan-18 17:30 34.289377 -119.550868 283 3979ft 102kts
07-Jan-18 17:31 34.296770 -119.584247 282 3945ft 102kts
07-Jan-18 17:32 34.303813 -119.617620 283 3969ft 102kts
07-Jan-18 17:33 34.310906 -119.650918 279 3991ft 102kts
07-Jan-18 17:34 34.316960 -119.684505 280 4016ft 103kts
07-Jan-18 17:35 34.323368 -119.718312 280 4039ft 103kts
07-Jan-18 17:36 34.329768 -119.753042 280 4007ft 106kts
07-Jan-18 17:37 34.336348 -119.788145 281 3982ft 106kts
07-Jan-18 17:38 34.343725 -119.822816 290 3943ft 108kts
07-Jan-18 17:39 34.355708 -119.855972 289 3926ft 108kts
07-Jan-18 17:40 34.366383 -119.890286 287 3531ft 110kts
07-Jan-18 17:41 34.376487 -119.924905 285 2932ft 111kts
07-Jan-18 17:42 34.385827 -119.959507 289 2328ft 111kts
07-Jan-18 17:43 34.394665 -119.992975 284 1958ft 95kts
07-Jan-18 17:44 34.402410 -120.021559 301 1883ft 87kts
07-Jan-18 17:45 34.419872 -120.010809 52 1896ft 86kts
07-Jan-18 17:46 34.424818 -119.983860 91 1925ft 81kts
07-Jan-18 17:47 34.425043 -119.955415 92 1779ft 91kts
07-Jan-18 17:48 34.426008 -119.924147 85 1211ft 90kts
07-Jan-18 17:49 34.426734 -119.896763 91 719ft 74kts
07-Jan-18 17:50 34.427013 -119.872325 87 321ft 74kts
07-Jan-18 17:51 34.427591 -119.847984 88 13ft 58kts
07-Jan-18 17:52 34.428574 -119.841993 344 13ft 0kts
07-Jan-18 17:53 34.428574 -119.841993 344 13ft 0kts
07-Jan-18 17:54 34.429144 -119.843790 244 13ft 15kts
07-Jan-18 17:55 34.429264 -119.846093 331 13ft 0kts
07-Jan-18 17:56 34.429264 -119.846093 331 13ft 0kts
07-Jan-18 17:57 34.429264 -119.846093 331 13ft 0kts
07-Jan-18 17:58 34.429264 -119.846093 331 13ft 0kts

Navigation Log

Ident Type
1. KOXR Airport
2. KWANG Fix
3. KSBA Airport